createdAt,value
2019-05-25T00:00:35.714Z,85.71
2019-05-25T00:01:35.704Z,85.99
2019-05-25T00:02:35.478Z,85.71
2019-05-25T00:03:35.697Z,84.75
2019-05-25T00:04:35.745Z,84.94
2019-05-25T00:05:35.677Z,84.94
2019-05-25T00:06:35.673Z,85.22
2019-05-25T00:07:35.665Z,85.13
2019-05-25T00:08:35.699Z,85.13
2019-05-25T00:10:35.654Z,84.55
2019-05-25T00:11:35.646Z,84.17
2019-05-25T00:12:35.633Z,83.69
2019-05-25T00:13:35.646Z,84.36
2019-05-25T00:14:35.626Z,83.69
2019-05-25T00:15:35.616Z,83.6
2019-05-25T00:16:35.612Z,82.35
2019-05-25T00:17:35.602Z,82.07
2019-05-25T00:18:35.625Z,81.68
2019-05-25T00:19:35.590Z,81.49
2019-05-25T00:20:35.582Z,80.73
2019-05-25T00:21:35.581Z,80.63
2019-05-25T00:22:35.572Z,80.63
2019-05-25T00:23:35.565Z,79.58
2019-05-25T00:25:35.554Z,79.49
2019-05-25T00:28:36.812Z,79.68
2019-05-25T00:29:35.527Z,79.77
2019-05-25T00:30:35.520Z,79.68
2019-05-25T00:32:35.510Z,80.35
2019-05-25T00:33:35.504Z,80.25
2019-05-25T00:34:35.491Z,79.96
2019-05-25T00:35:35.510Z,80.06
2019-05-25T00:36:36.496Z,79.83
2019-05-25T00:37:35.507Z,79.93
2019-05-25T00:38:35.464Z,79.83
2019-05-25T00:39:35.460Z,80.59
2019-05-25T00:41:35.450Z,80.3
2019-05-25T00:42:35.438Z,80.4
2019-05-25T00:43:35.499Z,79.73
2019-05-25T00:44:35.428Z,79.93
2019-05-25T00:45:35.422Z,79.83
2019-05-25T00:46:35.415Z,80.5
2019-05-25T05:26:32.917Z,58.12
2019-05-25T05:27:32.913Z,57.64
2019-05-25T05:28:32.911Z,56.71
2019-05-25T05:29:32.939Z,54.93
2019-05-25T05:30:32.917Z,53.77
2019-05-25T05:31:32.908Z,53.59
2019-05-25T05:32:32.908Z,52.66
2019-05-25T05:33:32.911Z,51.13
2019-05-25T05:34:32.917Z,50.35
2019-05-25T05:35:32.919Z,49.61
2019-05-25T05:36:32.917Z,48.95
2019-05-25T05:37:32.946Z,48.97
2019-05-25T05:38:32.923Z,46.26
2019-05-25T05:39:32.933Z,45.7
2019-05-25T05:40:32.933Z,43.95
2019-05-25T05:41:33.631Z,43.86
2019-05-25T05:42:32.943Z,44.15
2019-05-25T05:43:32.948Z,44.73
2019-05-25T05:44:32.715Z,43.59
2019-05-25T05:45:32.962Z,43.88
2019-05-25T05:46:32.973Z,43.51
2019-05-25T05:47:32.729Z,41.98
2019-05-25T05:48:33.075Z,41.8
2019-05-25T05:49:32.985Z,40.15
2019-05-25T05:50:33.001Z,39.29
2019-05-25T05:51:33.000Z,40.08
2019-05-25T05:52:33.009Z,40.37
2019-05-25T05:53:33.014Z,40.66
2019-05-25T05:54:33.029Z,40.09
2019-05-25T05:55:33.031Z,38.75
2019-05-25T05:56:33.040Z,38.87
2019-05-25T05:57:33.047Z,38.4
2019-05-25T05:58:33.058Z,37.54
2019-05-25T05:59:33.066Z,36.86
2019-05-25T06:00:33.113Z,35.59
2019-05-25T06:01:33.102Z,35
2019-05-25T06:02:32.851Z,36.16
2019-05-25T06:03:33.103Z,37.23
2019-05-25T06:04:33.110Z,37.5
2019-05-25T06:05:33.133Z,35.96
2019-05-25T06:06:33.133Z,35.49
2019-05-25T06:07:33.146Z,35.2
2019-05-25T06:08:33.148Z,35.1
2019-05-25T06:09:33.159Z,35.18
2019-05-25T06:10:33.175Z,35.96
2019-05-25T06:11:33.180Z,35
2019-05-25T06:12:33.195Z,34.42
2019-05-25T06:13:33.238Z,34.32
2019-05-25T06:14:33.218Z,34.81
2019-05-25T06:15:33.220Z,35.3
2019-05-25T06:16:33.236Z,34.92
2019-05-25T06:17:33.582Z,34.45
2019-05-25T06:18:33.257Z,33.2
2019-05-25T06:19:33.268Z,33.2
2019-05-25T06:20:33.279Z,32.23
2019-05-25T06:21:33.287Z,32.71
2019-05-25T06:22:33.305Z,33.2
2019-05-25T06:23:46.046Z,33.12
2019-05-25T06:24:33.326Z,33.41
2019-05-25T06:25:33.338Z,32.06
2019-05-25T06:26:33.346Z,32.65
2019-05-25T06:27:33.119Z,31.1
2019-05-25T06:28:33.368Z,31.29
2019-05-25T06:29:33.380Z,31
2019-05-25T06:30:33.396Z,31.11
2019-05-25T06:31:33.406Z,31.21
2019-05-25T06:32:33.433Z,30.04
2019-05-25T06:33:33.424Z,29.85
2019-05-25T06:34:33.445Z,29.64
2019-05-25T06:35:33.446Z,29.53
2019-05-25T06:36:33.459Z,30.4
2019-05-25T06:37:33.479Z,30.96
2019-05-25T06:38:33.491Z,31.23
2019-05-25T06:39:33.603Z,32.19
2019-05-25T06:40:33.516Z,32.09
2019-05-25T06:41:33.527Z,32.31
2019-05-25T06:42:33.535Z,31.54
2019-05-25T06:43:33.547Z,31.54
2019-05-25T06:44:33.560Z,30.97
2019-05-25T06:45:33.570Z,30.98
2019-05-25T06:46:33.584Z,30.8
2019-05-25T06:51:34.661Z,27.64
2019-05-25T06:52:33.418Z,28.31
2019-05-25T06:53:33.671Z,28.5
2019-05-25T06:54:33.685Z,29.66
2019-05-25T06:55:33.698Z,29.46
2019-05-25T06:56:33.706Z,29.56
2019-05-25T06:57:45.080Z,28.49
2019-05-25T06:58:33.728Z,28.89
2019-05-25T06:59:33.745Z,28.39
2019-05-25T07:00:33.753Z,29.17
2019-05-25T07:02:33.779Z,28.86
2019-05-25T07:03:33.807Z,28.67
2019-05-25T07:04:33.800Z,28.67
2019-05-25T07:05:33.810Z,29.07
2019-05-25T07:06:33.820Z,29.27
2019-05-25T07:07:33.848Z,28.69
2019-05-25T07:08:33.845Z,28.51
2019-05-25T07:09:33.867Z,27.36
2019-05-25T07:10:33.870Z,26.2
2019-05-25T07:11:33.882Z,25.72
2019-05-25T07:12:33.893Z,25.23
2019-05-25T07:13:33.906Z,24.74
2019-05-25T07:14:33.919Z,25.42
2019-05-25T07:15:33.932Z,26.27
2019-05-25T07:16:33.944Z,27.14
2019-05-25T07:17:33.953Z,27.04
2019-05-25T07:18:37.498Z,27.44
2019-05-25T07:19:33.980Z,26.83
2019-05-25T07:20:33.990Z,27.23
2019-05-25T07:21:34.006Z,27.88
2019-05-25T07:22:34.011Z,28.36
2019-05-25T07:23:34.024Z,28.06
2019-05-25T07:24:34.070Z,28.18
2019-05-25T07:25:34.048Z,28.75
2019-05-25T07:26:34.057Z,29.11
2019-05-25T07:27:34.071Z,29.6
2019-05-25T07:28:34.080Z,29.88
2019-05-25T07:29:34.091Z,30.16
2019-05-25T07:30:34.103Z,31.02
2019-05-25T07:31:34.116Z,31.4
2019-05-25T07:32:33.882Z,32.26
2019-05-25T07:33:34.137Z,32.63
2019-05-25T07:34:34.141Z,32.92
2019-05-25T07:35:34.154Z,33.2
2019-05-25T07:36:34.170Z,33.59
2019-05-25T07:37:33.926Z,33.29
2019-05-25T07:38:34.185Z,33.01
2019-05-25T07:39:34.191Z,33.11
2019-05-25T07:40:34.198Z,33.59
2019-05-25T07:41:34.233Z,33.39
2019-05-25T07:42:33.968Z,33.49
2019-05-25T07:43:34.223Z,33.48
2019-05-25T07:44:34.232Z,33.98
2019-05-25T07:45:34.240Z,33.88
2019-05-25T07:46:34.246Z,33.86
2019-05-25T07:47:34.010Z,34.84
2019-05-25T07:48:34.268Z,34.37
2019-05-25T07:49:34.268Z,33.29
2019-05-25T07:50:34.274Z,33.49
2019-05-25T07:51:34.337Z,33.98
2019-05-25T07:52:34.045Z,33.49
2019-05-25T07:53:34.296Z,34.25
2019-05-25T07:54:34.305Z,35.02
2019-05-25T07:55:34.313Z,35.7
2019-05-25T07:56:34.318Z,35.97
2019-05-25T07:57:34.326Z,36.16
2019-05-25T07:58:34.328Z,36.75
2019-05-25T07:59:34.339Z,37.22
2019-05-25T08:00:34.340Z,36.44
2019-05-25T08:01:34.353Z,37.6
2019-05-25T08:02:34.107Z,37.41
2019-05-25T08:03:34.364Z,37.51
2019-05-25T08:04:34.363Z,37.49
2019-05-25T08:05:34.369Z,37.68
2019-05-25T08:06:34.383Z,37.78
2019-05-25T08:07:34.134Z,38.27
2019-05-25T08:08:34.387Z,37.98
2019-05-25T08:09:34.394Z,38.37
2019-05-25T08:10:34.398Z,38.17
2019-05-25T08:11:34.399Z,37.78
2019-05-25T08:12:34.405Z,37.98
2019-05-25T08:13:34.413Z,38.07
2019-05-25T08:14:34.415Z,38.07
2019-05-25T08:15:34.423Z,37.98
2019-05-25T08:16:34.426Z,38.27
2019-05-25T08:17:34.431Z,38.17
2019-05-25T08:18:34.437Z,38.17
2019-05-25T08:19:34.439Z,37.88
2019-05-25T08:20:34.448Z,38.44
2019-05-25T08:21:34.450Z,38.83
2019-05-25T08:22:34.252Z,38.83
2019-05-25T08:23:34.463Z,38.83
2019-05-25T08:24:34.468Z,39.39
2019-05-25T08:25:34.469Z,39.49
2019-05-25T08:26:34.481Z,39.49
2019-05-25T08:27:34.475Z,39.98
2019-05-25T08:28:35.507Z,40.17
2019-05-25T08:29:34.485Z,39.59
2019-05-25T08:30:34.498Z,40.26
2019-05-25T08:31:34.492Z,40.26
2019-05-25T08:32:34.254Z,40.09
2019-05-25T08:33:34.500Z,39.41
2019-05-25T08:34:34.513Z,38.95
2019-05-25T08:35:34.519Z,38.85
2019-05-25T08:36:34.514Z,38.65
2019-05-25T08:37:34.525Z,39.04
2019-05-25T08:38:34.523Z,38.56
2019-05-25T08:39:34.528Z,38.56
2019-05-25T08:40:34.537Z,38.75
2019-05-25T08:41:34.593Z,38.83
2019-05-25T08:42:34.539Z,39.12
2019-05-25T08:43:34.549Z,39.61
2019-05-25T08:44:34.548Z,39.61
2019-05-25T08:45:34.557Z,40.09
2019-05-25T08:46:34.558Z,40.26
2019-05-25T08:47:34.564Z,39.98
2019-05-25T08:48:34.571Z,40.56
2019-05-25T08:49:34.570Z,40.56
2019-05-25T08:50:41.014Z,40.66
2019-05-25T08:51:34.605Z,40.56
2019-05-25T08:52:34.581Z,40.46
2019-05-25T08:53:46.539Z,40.54
2019-05-25T08:54:34.590Z,40.81
2019-05-25T08:55:34.599Z,41.2
2019-05-25T08:56:34.596Z,41.2
2019-05-25T08:57:34.600Z,41.66
2019-05-25T08:58:49.876Z,42.71
2019-05-25T08:59:34.600Z,42.8
2019-05-25T09:00:34.620Z,43.29
2019-05-25T09:01:34.615Z,43.17
2019-05-25T09:02:35.884Z,43.65
2019-05-25T09:03:34.615Z,43.75
2019-05-25T09:05:34.616Z,44.23
2019-05-25T09:06:34.618Z,44.33
2019-05-25T09:07:34.620Z,43.95
2019-05-25T09:08:34.622Z,44.13
2019-05-25T09:09:34.625Z,44.43
2019-05-25T09:10:34.625Z,44.53
2019-05-25T09:11:34.627Z,44.23
2019-05-25T09:12:34.626Z,44.33
2019-05-25T09:13:34.630Z,44.53
2019-05-25T09:14:34.629Z,44.53
2019-05-25T09:15:34.637Z,44.62
2019-05-25T09:16:34.634Z,44.81
2019-05-25T09:17:34.639Z,44.43
2019-05-25T09:18:34.636Z,44.62
2019-05-25T09:19:34.637Z,44.6
2019-05-25T09:20:34.675Z,44.79
2019-05-25T09:21:34.642Z,45.18
2019-05-25T09:22:34.640Z,45.57
2019-05-25T09:23:34.642Z,45.74
2019-05-25T09:24:34.649Z,45.93
2019-05-25T09:25:34.414Z,46.42
2019-05-25T09:26:34.651Z,46.12
2019-05-25T09:27:34.645Z,46.61
2019-05-25T09:28:34.648Z,46.61
2019-05-25T09:29:34.404Z,46.9
2019-05-25T09:30:34.651Z,46.51
2019-05-25T09:31:34.650Z,46.49
2019-05-25T09:32:34.409Z,47.07
2019-05-25T09:33:34.646Z,47.74
2019-05-25T09:34:34.648Z,48.11
2019-05-25T09:35:34.647Z,48.21
2019-05-25T09:36:34.651Z,48.3
2019-05-25T09:37:34.648Z,48.49
2019-05-25T09:38:34.647Z,48.39
2019-05-25T09:39:34.660Z,47.81
2019-05-25T09:40:34.651Z,48.21
2019-05-25T09:41:34.411Z,48.21
2019-05-25T09:42:34.648Z,48.13
2019-05-25T09:43:36.442Z,48.3
2019-05-25T09:44:34.652Z,48.23
2019-05-25T09:45:34.649Z,48.23
2019-05-25T09:46:34.655Z,48.23
2019-05-25T09:47:34.405Z,48.52
2019-05-25T09:48:37.902Z,48.9
2019-05-25T09:49:34.650Z,49.1
2019-05-25T09:50:34.648Z,49.39
2019-05-25T09:51:34.650Z,48.52
2019-05-25T09:52:34.409Z,48.52
2019-05-25T09:53:34.654Z,48.23
2019-05-25T09:54:34.649Z,48.61
2019-05-25T09:55:34.651Z,49.46
2019-05-25T09:56:34.648Z,49.27
2019-05-25T09:57:34.652Z,49.46
2019-05-25T09:58:34.648Z,49.65
2019-05-25T09:59:34.648Z,49.92
2019-05-25T10:00:34.652Z,50.79
2019-05-25T10:01:34.647Z,49.82
2019-05-25T10:02:34.699Z,49.82
2019-05-25T10:03:34.650Z,50.4
2019-05-25T10:04:34.652Z,50.31
2019-05-25T10:05:34.647Z,50.31
2019-05-25T10:06:34.650Z,49.53
2019-05-25T10:07:34.404Z,49.82
2019-05-25T10:08:34.645Z,49.73
2019-05-25T10:09:34.652Z,50.21
2019-05-25T10:10:34.654Z,50.43
2019-05-25T10:11:34.652Z,49.95
2019-05-25T10:12:34.649Z,49.17
2019-05-25T10:13:34.646Z,48.71
2019-05-25T10:14:34.646Z,48.61
2019-05-25T10:15:34.649Z,48.83
2019-05-25T10:16:34.645Z,48.16
2019-05-25T10:17:34.648Z,48.06
2019-05-25T10:18:34.649Z,47.69
2019-05-25T10:19:34.647Z,47.5
2019-05-25T10:20:34.645Z,46.63
2019-05-25T10:21:34.652Z,47.79
2019-05-25T10:22:34.659Z,47.79
2019-05-25T10:23:34.650Z,47.79
2019-05-25T10:24:34.655Z,47.5
2019-05-25T10:25:34.670Z,46.92
2019-05-25T10:26:34.652Z,46.94
2019-05-25T10:27:36.744Z,46.66
2019-05-25T10:28:34.658Z,46.94
2019-05-25T10:29:39.633Z,47.06
2019-05-25T10:30:34.657Z,46.58
2019-05-25T10:31:34.439Z,45.61
2019-05-25T10:32:34.418Z,45.15
2019-05-25T10:33:35.180Z,45.05
2019-05-25T10:34:34.666Z,44.64
2019-05-25T10:35:34.665Z,44.54
2019-05-25T10:36:34.666Z,44.84
2019-05-25T10:37:34.432Z,44.74
2019-05-25T10:38:34.670Z,44.26
2019-05-25T10:39:34.671Z,44.74
2019-05-25T10:40:34.670Z,45.22
2019-05-25T10:41:34.675Z,45.32
2019-05-25T10:42:34.674Z,45.61
2019-05-25T10:43:34.675Z,45.61
2019-05-25T10:44:34.696Z,45.32
2019-05-25T10:45:34.677Z,43.7
2019-05-25T10:46:34.738Z,43.41
2019-05-25T10:47:34.681Z,43.13
2019-05-25T10:48:34.701Z,43.33
2019-05-25T10:49:34.688Z,43.52
2019-05-25T10:50:34.446Z,42.36
2019-05-25T10:51:34.690Z,42.48
2019-05-25T10:52:34.692Z,42.29
2019-05-25T10:53:34.696Z,42.57
2019-05-25T10:54:34.698Z,42.57
2019-05-25T10:55:34.700Z,42.38
2019-05-25T10:56:34.702Z,42.4
2019-05-25T10:57:34.703Z,42.4
2019-05-25T10:58:34.710Z,42.79
2019-05-25T10:59:34.712Z,40.95
2019-05-25T11:00:34.719Z,40.36
2019-05-25T11:01:34.730Z,41.14
2019-05-25T11:02:34.722Z,41.7
2019-05-25T11:03:34.721Z,41.92
2019-05-25T11:04:34.732Z,41.53
2019-05-25T11:05:34.725Z,41.92
2019-05-25T11:06:37.284Z,42.02
2019-05-25T11:07:34.736Z,41.14
2019-05-25T11:08:34.802Z,41.43
2019-05-25T11:09:34.747Z,41.41
2019-05-25T11:10:34.741Z,41.51
2019-05-25T11:11:34.745Z,42.09
2019-05-25T11:12:34.502Z,42.38
2019-05-25T11:13:34.749Z,42.48
2019-05-25T11:14:34.754Z,42.77
2019-05-25T11:15:34.754Z,42.38
2019-05-25T11:16:34.774Z,42.48
2019-05-25T11:17:34.774Z,42.09
2019-05-25T11:18:34.764Z,41.24
2019-05-25T11:19:34.766Z,41.72
2019-05-25T11:20:34.765Z,42.11
2019-05-25T11:21:34.786Z,41.72
2019-05-25T11:22:34.775Z,41.33
2019-05-25T11:23:34.777Z,41.33
2019-05-25T11:24:34.781Z,41.16
2019-05-25T11:25:34.791Z,40.97
2019-05-25T11:26:34.783Z,40.87
2019-05-25T11:27:34.785Z,40.29
2019-05-25T11:28:34.791Z,40.77
2019-05-25T11:29:34.835Z,40.58
2019-05-25T11:30:34.797Z,39.51
2019-05-25T11:31:35.011Z,39.61
2019-05-25T11:32:34.798Z,39.98
2019-05-25T11:33:36.755Z,40.44
2019-05-25T11:34:34.806Z,40.44
2019-05-25T11:35:34.830Z,41
2019-05-25T11:36:34.813Z,41
2019-05-25T11:37:34.570Z,41.3
2019-05-25T11:38:34.821Z,42.14
2019-05-25T11:39:34.826Z,42.34
2019-05-25T11:40:34.828Z,42.92
2019-05-25T11:41:34.839Z,42.92
2019-05-25T11:42:34.827Z,42.92
2019-05-25T11:43:34.829Z,42.82
2019-05-25T11:44:34.837Z,43.02
2019-05-25T11:45:34.836Z,43.12
2019-05-25T11:46:34.837Z,43.02
2019-05-25T11:47:34.904Z,42.94
2019-05-25T11:48:34.838Z,42.94
2019-05-25T11:49:34.841Z,42.85
2019-05-25T11:50:34.848Z,42.77
2019-05-25T11:51:34.844Z,41.99
2019-05-25T11:52:34.854Z,41.8
2019-05-25T11:53:34.851Z,41.61
2019-05-25T11:54:34.852Z,41.61
2019-05-25T11:55:34.854Z,41.31
2019-05-25T11:56:34.855Z,41.31
2019-05-25T11:57:34.616Z,42.19
2019-05-25T11:58:49.308Z,42.19
2019-05-25T11:59:34.868Z,41.89
2019-05-25T12:00:34.866Z,41.31
2019-05-25T12:01:34.628Z,41.41
2019-05-25T12:02:34.870Z,41.61
2019-05-25T12:03:34.876Z,41.89
2019-05-25T12:04:34.631Z,41.8
2019-05-25T12:05:34.879Z,41.89
2019-05-25T12:06:34.876Z,41.7
2019-05-25T12:07:34.639Z,42.4
2019-05-25T12:08:34.883Z,42.02
2019-05-25T12:09:34.890Z,41.33
2019-05-25T12:10:34.895Z,40.95
2019-05-25T12:11:34.895Z,40.75
2019-05-25T12:12:34.892Z,40.85
2019-05-25T12:13:34.651Z,40.85
2019-05-25T12:14:34.957Z,40.17
2019-05-25T12:15:34.906Z,41.14
2019-05-25T12:16:34.904Z,40.92
2019-05-25T12:17:34.662Z,41.31
2019-05-25T12:18:34.921Z,41.22
2019-05-25T12:19:34.908Z,41.12
2019-05-25T12:20:34.912Z,41.12
2019-05-25T12:21:34.916Z,41.51
2019-05-25T12:22:34.920Z,41.49
2019-05-25T12:23:34.918Z,42.26
2019-05-25T12:24:34.921Z,43.38
2019-05-25T12:25:34.922Z,43.77
2019-05-25T12:26:34.928Z,43.68
2019-05-25T12:27:35.003Z,44.13
2019-05-25T12:28:34.931Z,44.33
2019-05-25T12:29:34.931Z,44.72
2019-05-25T12:30:43.519Z,45.2
2019-05-25T12:31:34.933Z,44.62
2019-05-25T12:32:34.935Z,44.62
2019-05-25T12:33:34.938Z,45.08
2019-05-25T12:34:34.942Z,45.66
2019-05-25T12:35:34.942Z,45.47
2019-05-25T12:36:34.940Z,45.18
2019-05-25T12:37:34.953Z,45.1
2019-05-25T12:38:34.944Z,44.72
2019-05-25T12:39:34.946Z,44.72
2019-05-25T12:40:34.945Z,44.72
2019-05-25T12:41:34.946Z,44.72
2019-05-25T12:42:34.948Z,44.91
2019-05-25T12:43:34.946Z,45.2
2019-05-25T12:44:37.132Z,45.01
2019-05-25T12:45:34.952Z,44.81
2019-05-25T12:46:34.951Z,45.01
2019-05-25T12:47:34.953Z,44.53
2019-05-25T12:48:34.956Z,44.91
2019-05-25T12:49:52.446Z,45.4
2019-05-25T12:50:34.955Z,45.1
2019-05-25T12:51:34.967Z,44.91
2019-05-25T12:52:34.958Z,44.72
2019-05-25T12:53:34.957Z,44.62
2019-05-25T12:54:34.959Z,44.43
2019-05-25T12:55:34.965Z,44.62
2019-05-25T12:56:34.965Z,44.72
2019-05-25T12:57:34.962Z,44.81
2019-05-25T12:58:34.963Z,44.62
2019-05-25T12:59:34.968Z,44.81
2019-05-25T13:00:34.965Z,44.91
2019-05-25T13:01:34.966Z,44.91
2019-05-25T13:02:34.976Z,45.1
2019-05-25T13:03:34.969Z,44.62
2019-05-25T13:04:34.970Z,44.81
2019-05-25T13:05:36.932Z,44.91
2019-05-25T13:06:34.980Z,45.08
2019-05-25T13:07:34.732Z,45.1
2019-05-25T13:08:34.976Z,45.37
2019-05-25T13:09:34.976Z,44.98
2019-05-25T13:10:34.976Z,44.98
2019-05-25T13:11:34.976Z,44.72
2019-05-25T13:12:34.980Z,44.43
2019-05-25T13:13:34.979Z,44.72
2019-05-25T13:14:34.988Z,45.01
2019-05-25T13:15:34.997Z,44.72
2019-05-25T13:16:34.983Z,44.72
2019-05-25T13:17:34.985Z,44.91
2019-05-25T13:18:34.986Z,44.5
2019-05-25T13:19:34.984Z,44.7
2019-05-25T13:20:34.991Z,44.7
2019-05-25T13:21:34.983Z,44.79
2019-05-25T13:22:34.985Z,44.79
2019-05-25T13:23:34.745Z,44.89
2019-05-25T13:24:34.990Z,44.98
2019-05-25T13:25:34.991Z,45.08
2019-05-25T13:26:35.011Z,44.89
2019-05-25T13:27:34.991Z,44.21
2019-05-25T13:28:34.993Z,44.43
2019-05-25T13:29:34.993Z,43.85
2019-05-25T13:30:34.993Z,43.85
2019-05-25T13:31:34.991Z,44.04
2019-05-25T13:32:34.749Z,44.53
2019-05-25T13:33:34.992Z,44.33
2019-05-25T13:34:34.999Z,44.53
2019-05-25T13:35:34.998Z,44.33
2019-05-25T13:36:35.022Z,44.13
2019-05-25T13:37:34.752Z,43.85
2019-05-25T13:38:34.995Z,43.95
2019-05-25T13:39:35.012Z,43.75
2019-05-25T13:40:34.997Z,43.75
2019-05-25T13:41:34.997Z,44.04
2019-05-25T13:42:34.756Z,44.04
2019-05-25T13:43:34.999Z,43.65
2019-05-25T13:44:34.999Z,43.85
2019-05-25T13:45:35.003Z,43.65
2019-05-25T13:46:35.004Z,43.75
2019-05-25T13:47:34.760Z,43.46
2019-05-25T13:48:35.008Z,43.46
2019-05-25T13:49:35.006Z,43.85
2019-05-25T13:50:35.007Z,44.13
2019-05-25T13:51:35.009Z,44.33
2019-05-25T13:52:34.765Z,44.6
2019-05-25T13:53:35.550Z,44.7
2019-05-25T13:54:35.008Z,44.7
2019-05-25T13:55:35.008Z,44.7
2019-05-25T13:56:35.012Z,44.4
2019-05-25T13:57:35.008Z,44.12
2019-05-25T13:58:35.011Z,44.38
2019-05-25T13:59:35.012Z,44.38
2019-05-25T14:00:35.026Z,44.38
2019-05-25T14:01:35.013Z,44.57
2019-05-25T14:02:35.012Z,44.94
2019-05-25T14:03:35.013Z,45.42
2019-05-25T14:04:35.014Z,45.69
2019-05-25T14:05:35.013Z,45.89
2019-05-25T14:06:35.011Z,45.69
2019-05-25T14:07:35.013Z,45.69
2019-05-25T14:08:35.017Z,45.4
2019-05-25T14:09:35.013Z,45.4
2019-05-25T14:10:35.013Z,45.59
2019-05-25T14:11:35.022Z,45.91
2019-05-25T14:12:35.018Z,45.81
2019-05-25T14:13:35.017Z,45.91
2019-05-25T14:14:35.024Z,45.33
2019-05-25T14:15:35.013Z,45.04
2019-05-25T14:16:35.013Z,45.14
2019-05-25T14:17:35.013Z,45.04
2019-05-25T14:18:35.013Z,45.62
2019-05-25T14:19:35.019Z,45.42
2019-05-25T14:20:35.012Z,45.33
2019-05-25T14:21:35.014Z,45.52
2019-05-25T14:22:35.011Z,45.81
2019-05-25T14:23:35.012Z,45.91
2019-05-25T14:24:35.011Z,45.91
2019-05-25T14:25:35.013Z,46.2
2019-05-25T14:26:35.011Z,45.91
2019-05-25T14:27:35.013Z,45.91
2019-05-25T14:28:35.013Z,45.89
2019-05-25T14:29:35.009Z,45.89
2019-05-25T14:30:35.013Z,45.91
2019-05-25T14:31:47.975Z,45.72
2019-05-25T14:32:35.015Z,45.91
2019-05-25T14:33:35.014Z,45.54
2019-05-25T14:34:35.009Z,45.16
2019-05-25T14:35:35.010Z,45.16
2019-05-25T14:36:35.010Z,45.91
2019-05-25T14:37:35.017Z,46.08
2019-05-25T14:38:35.009Z,46.17
2019-05-25T14:39:35.009Z,46.85
2019-05-25T14:40:35.005Z,46.56
2019-05-25T14:41:35.008Z,46.56
2019-05-25T14:42:35.009Z,46.66
2019-05-25T14:43:35.036Z,46.95
2019-05-25T14:44:35.011Z,46.56
2019-05-25T14:45:35.003Z,46.66
2019-05-25T14:46:35.005Z,46.85
2019-05-25T14:47:35.006Z,47.43
2019-05-25T14:48:35.004Z,46.75
2019-05-25T14:49:35.101Z,46.56
2019-05-25T14:50:35.002Z,46.92
2019-05-25T14:51:35.005Z,47.6
2019-05-25T14:52:35.000Z,47.8
2019-05-25T14:53:35.013Z,47.99
2019-05-25T14:54:35.002Z,47.8
2019-05-25T14:55:35.019Z,48.57
2019-05-25T14:56:34.999Z,48.93
2019-05-25T14:57:35.004Z,49.34
2019-05-25T14:58:35.015Z,49.12
2019-05-25T14:59:35.002Z,49.7
2019-05-25T15:00:35.001Z,49.22
2019-05-25T15:01:35.012Z,49.32
2019-05-25T15:02:34.750Z,49.32
2019-05-25T15:03:34.996Z,49.12
2019-05-25T15:04:34.993Z,49.12
2019-05-25T15:05:34.995Z,49.32
2019-05-25T15:06:34.993Z,49.22
2019-05-25T15:07:34.752Z,48.86
2019-05-25T15:08:34.990Z,48.57
2019-05-25T15:09:34.985Z,48.37
2019-05-25T15:10:34.994Z,48.18
2019-05-25T15:11:34.985Z,47.8
2019-05-25T15:12:34.742Z,47.99
2019-05-25T15:13:34.987Z,47.99
2019-05-25T15:14:34.981Z,48.18
2019-05-25T15:15:34.980Z,48.37
2019-05-25T15:16:34.979Z,48.08
2019-05-25T15:17:37.220Z,48.18
2019-05-25T15:18:34.981Z,48.28
2019-05-25T15:19:34.975Z,48.47
2019-05-25T15:20:34.976Z,49.34
2019-05-25T15:21:35.091Z,49.22
2019-05-25T15:22:34.975Z,49.41
2019-05-25T15:23:34.976Z,49.8
2019-05-25T15:24:34.971Z,49.7
2019-05-25T15:25:34.969Z,49.99
2019-05-25T15:26:34.968Z,49.41
2019-05-25T15:27:34.725Z,49.99
2019-05-25T15:28:34.969Z,50.35
2019-05-25T15:29:34.967Z,50.84
2019-05-25T15:30:34.965Z,51.29
2019-05-25T15:31:34.965Z,51.58
2019-05-25T15:32:34.961Z,51.77
2019-05-25T15:33:34.960Z,51.58
2019-05-25T15:34:34.964Z,51.97
2019-05-25T15:35:34.964Z,52.13
2019-05-25T15:36:34.957Z,52.13
2019-05-25T15:37:34.714Z,52.16
2019-05-25T15:38:34.956Z,52.25
2019-05-25T15:39:34.953Z,52.16
2019-05-25T15:40:34.962Z,52.16
2019-05-25T15:41:34.952Z,51.94
2019-05-25T15:42:34.712Z,52.33
2019-05-25T15:43:34.948Z,52.06
2019-05-25T15:44:34.949Z,52.33
2019-05-25T15:45:34.953Z,52.13
2019-05-25T15:46:34.946Z,52.25
2019-05-25T15:47:34.698Z,52.52
2019-05-25T15:48:34.944Z,53.48
2019-05-25T15:49:36.193Z,52.42
2019-05-25T15:50:34.939Z,52.52
2019-05-25T15:51:34.937Z,52.45
2019-05-25T15:52:34.935Z,52.16
2019-05-25T15:53:34.937Z,52.35
2019-05-25T15:54:34.941Z,52.35
2019-05-25T15:55:34.929Z,52.25
2019-05-25T15:56:34.684Z,52.09
2019-05-25T15:57:34.684Z,52.19
2019-05-25T15:58:34.927Z,51.89
2019-05-25T15:59:34.924Z,51.89
2019-05-25T16:00:34.932Z,51.32
2019-05-25T16:01:34.681Z,51.61
2019-05-25T16:02:39.197Z,51.99
2019-05-25T16:03:34.918Z,51.97
2019-05-25T16:04:35.673Z,51.87
2019-05-25T16:05:34.925Z,52.06
2019-05-25T16:06:34.912Z,52.42
2019-05-25T16:07:34.668Z,53.09
2019-05-25T16:08:34.911Z,52.91
2019-05-25T16:09:34.911Z,52.81
2019-05-25T16:10:34.910Z,53
2019-05-25T16:11:34.912Z,53.09
2019-05-25T16:12:34.906Z,53
2019-05-25T16:13:34.930Z,53
2019-05-25T16:14:34.905Z,53
2019-05-25T16:15:34.903Z,53.39
2019-05-25T16:16:34.902Z,53.67
2019-05-25T16:17:34.894Z,53.87
2019-05-25T16:18:34.918Z,53.48
2019-05-25T16:19:34.891Z,53.39
2019-05-25T16:20:34.890Z,54.16
2019-05-25T16:21:34.887Z,54.16
2019-05-25T16:22:34.642Z,54.06
2019-05-25T16:23:34.886Z,53.09
2019-05-25T16:24:34.890Z,52.91
2019-05-25T16:25:34.879Z,53.17
2019-05-25T16:26:47.814Z,54.22
2019-05-25T16:27:34.875Z,54.13
2019-05-25T16:28:34.873Z,53.74
2019-05-25T16:29:34.870Z,54.03
2019-05-25T16:30:34.883Z,54.32
2019-05-25T16:31:36.344Z,54.58
2019-05-25T16:32:34.627Z,55.35
2019-05-25T16:33:34.873Z,54.97
2019-05-25T16:34:34.880Z,55.55
2019-05-25T16:35:34.860Z,55.74
2019-05-25T16:36:34.854Z,55.52
2019-05-25T16:37:35.202Z,55.71
2019-05-25T16:38:34.890Z,55.81
2019-05-25T16:39:34.848Z,56
2019-05-25T16:40:34.907Z,56
2019-05-25T16:41:34.846Z,56.2
2019-05-25T16:42:34.603Z,56.58
2019-05-25T16:43:34.839Z,56.2
2019-05-25T16:44:34.874Z,55.81
2019-05-25T16:45:34.836Z,56.29
2019-05-25T16:46:34.829Z,56.29
2019-05-25T16:47:34.583Z,56.2
2019-05-25T16:48:34.831Z,56.67
2019-05-25T16:49:34.823Z,56.2
2019-05-25T16:50:34.825Z,56.2
2019-05-25T16:51:34.828Z,56.29
2019-05-25T16:52:34.569Z,56.1
2019-05-25T16:53:34.815Z,56.1
2019-05-25T16:54:34.811Z,56.55
2019-05-25T16:55:34.810Z,56.65
2019-05-25T16:56:34.826Z,57.13
2019-05-25T16:57:34.807Z,57.42
2019-05-25T16:58:34.801Z,57.13
2019-05-25T16:59:34.793Z,57.51
2019-05-25T17:00:34.871Z,57.9
2019-05-25T17:01:49.901Z,58.15
2019-05-25T17:02:34.791Z,58.06
2019-05-25T17:03:34.787Z,58.15
2019-05-25T17:04:34.783Z,58.35
2019-05-25T17:05:34.775Z,58.06
2019-05-25T17:06:34.775Z,58.35
2019-05-25T17:07:34.528Z,58.35
2019-05-25T17:08:34.768Z,58.45
2019-05-25T17:09:34.766Z,58.83
2019-05-25T17:10:34.763Z,59.02
2019-05-25T17:11:34.763Z,58.54
2019-05-25T17:12:34.513Z,58.83
2019-05-25T17:13:34.755Z,58.54
2019-05-25T17:14:34.750Z,58.73
2019-05-25T17:15:34.751Z,58.64
2019-05-25T17:16:34.743Z,58.15
2019-05-25T17:17:34.740Z,57.87
2019-05-25T17:18:34.738Z,58.35
2019-05-25T17:19:34.734Z,58.25
2019-05-25T17:20:34.727Z,58.06
2019-05-25T17:21:34.726Z,58.06
2019-05-25T17:22:34.478Z,58.15
2019-05-25T17:23:34.721Z,58.61
2019-05-25T17:24:34.714Z,58.73
2019-05-25T17:25:34.721Z,58.89
2019-05-25T17:26:34.713Z,59.09
2019-05-25T17:27:34.709Z,59.19
2019-05-25T17:28:34.705Z,58.8
2019-05-25T17:29:34.702Z,59.28
2019-05-25T17:30:34.694Z,59.19
2019-05-25T17:31:34.691Z,59.09
2019-05-25T17:32:34.444Z,59.38
2019-05-25T17:33:48.249Z,59.19
2019-05-25T17:34:34.677Z,60.05
2019-05-25T17:35:34.701Z,59.92
2019-05-25T17:36:34.674Z,60.11
2019-05-25T17:37:34.669Z,59.28
2019-05-25T17:38:34.666Z,60.02
2019-05-25T17:39:34.670Z,59.92
2019-05-25T17:40:34.658Z,59.92
2019-05-25T17:41:34.653Z,59.92
2019-05-25T17:42:34.653Z,59.92
2019-05-25T17:43:34.648Z,60.31
2019-05-25T17:44:34.643Z,60.69
2019-05-25T17:45:34.648Z,60.69
2019-05-25T17:46:34.649Z,60.98
2019-05-25T17:47:34.631Z,60.95